Time;durP1;ratioP1;P1;durP2;ratioP2;P2;SDS_P1;SDS_P2;PMS_P1;PMS_P2;Temp;Humidity;BMP_temperature;BMP_pressure;BME280_temperature;BME280_humidity;BME280_pressure;Samples;Min_cycle;Max_cycle;Signal;HPM_P1;HPM_P2
2022/04/08 00:02:19;;;;;;;3.33;1.00;;;11.80;99.90;;;;;;5063066;28;20477;-79
2022/04/08 00:04:48;;;;;;;1.97;1.00;;;11.90;99.90;;;;;;5061996;28;20462;-81
2022/04/08 00:07:17;;;;;;;3.33;0.90;;;12.00;99.90;;;;;;5064372;28;21143;-79
2022/04/08 00:09:46;;;;;;;2.97;0.80;;;12.00;99.90;;;;;;5067755;28;20680;-79
2022/04/08 00:12:14;;;;;;;1.63;0.70;;;12.10;99.90;;;;;;5066511;28;20477;-80
2022/04/08 00:14:42;;;;;;;1.20;0.70;;;12.10;99.90;;;;;;5066087;28;20961;-79
2022/04/08 00:17:10;;;;;;;4.20;0.77;;;12.00;99.90;;;;;;5063197;28;20474;-79
2022/04/08 00:19:38;;;;;;;2.63;0.80;;;11.80;99.90;;;;;;5067751;28;20451;-79
2022/04/08 00:22:07;;;;;;;3.70;0.87;;;11.80;99.90;;;;;;5066556;28;20463;-79
2022/04/08 00:24:37;;;;;;;3.07;0.80;;;11.80;99.90;;;;;;5064849;28;20473;-80
2022/04/08 00:27:05;;;;;;;1.80;0.70;;;11.90;99.90;;;;;;5065990;28;20450;-80
2022/04/08 00:29:33;;;;;;;3.13;0.60;;;11.80;99.90;;;;;;5061991;28;20485;-80
2022/04/08 00:32:01;;;;;;;2.37;0.70;;;11.70;99.90;;;;;;5063025;28;20474;-80
2022/04/08 00:34:29;;;;;;;2.80;0.80;;;11.70;98.80;;;;;;5062708;28;20450;-81
2022/04/08 00:36:58;;;;;;;2.37;0.70;;;11.70;99.20;;;;;;5067312;28;20532;-80
2022/04/08 00:39:26;;;;;;;1.60;0.60;;;11.70;99.90;;;;;;5066446;28;20489;-81
2022/04/08 00:41:56;;;;;;;1.97;0.70;;;11.80;99.90;;;;;;5060073;28;20475;-80
2022/04/08 00:44:24;;;;;;;0.80;0.60;;;12.00;99.60;;;;;;5069138;28;21079;-81
2022/04/08 00:46:52;;;;;;;1.90;0.80;;;11.90;98.50;;;;;;5069387;28;20950;-82
2022/04/08 00:49:20;;;;;;;1.80;0.63;;;11.90;97.70;;;;;;5065538;28;20949;-81
2022/04/08 00:51:49;;;;;;;6.37;1.60;;;11.90;98.00;;;;;;5060955;28;20458;-81
2022/04/08 00:54:18;;;;;;;1.33;0.60;;;11.80;97.70;;;;;;5066318;28;20968;-81
2022/04/08 00:56:47;;;;;;;2.17;0.60;;;11.80;95.00;;;;;;5067361;28;20661;-81
2022/04/08 00:59:17;;;;;;;3.23;0.70;;;11.70;92.90;;;;;;5070459;28;20455;-82
2022/04/08 01:01:46;;;;;;;2.60;0.90;;;11.90;92.50;;;;;;5064860;28;20459;-81
2022/04/08 01:04:15;;;;;;;2.70;0.87;;;11.70;92.70;;;;;;5067493;28;20456;-78
2022/04/08 01:06:44;;;;;;;1.80;0.70;;;11.70;92.40;;;;;;5065742;28;20443;-83
2022/04/08 01:09:13;;;;;;;1.80;0.57;;;11.70;91.50;;;;;;5067744;28;20447;-82
2022/04/08 01:11:43;;;;;;;1.20;0.67;;;12.10;94.00;;;;;;5070604;28;20946;-80
2022/04/08 01:14:13;;;;;;;1.27;0.90;;;11.80;91.90;;;;;;5068056;28;20807;-80
2022/04/08 01:16:43;;;;;;;0.50;0.50;;;11.90;93.10;;;;;;5063294;28;20993;-81
2022/04/08 01:19:11;;;;;;;1.50;0.70;;;11.90;93.80;;;;;;5067289;28;20450;-80
2022/04/08 01:21:39;;;;;;;3.57;2.90;;;11.90;94.60;;;;;;5069747;28;20464;-81
2022/04/08 01:24:12;;;;;;;2.33;0.67;;;11.90;99.90;;;;;;5062725;28;20941;-81
2022/04/08 01:26:42;;;;;;;2.00;0.73;;;11.90;93.70;;;;;;5068836;28;20462;-82
2022/04/08 01:29:10;;;;;;;1.53;0.60;;;11.90;94.70;;;;;;5063906;28;20477;-82
2022/04/08 01:31:43;;;;;;;1.57;0.73;;;11.90;94.90;;;;;;5062141;28;20449;-79
2022/04/08 01:34:12;;;;;;;1.00;0.90;;;12.10;99.90;;;;;;5058636;28;20448;-81
2022/04/08 01:36:40;;;;;;;5.13;1.40;;;11.90;93.70;;;;;;5060609;28;20479;-80
2022/04/08 01:39:08;;;;;;;0.83;0.67;;;11.90;93.50;;;;;;5059850;28;20453;-81
2022/04/08 01:41:36;;;;;;;3.03;0.93;;;11.90;93.30;;;;;;5060639;28;20539;-81
2022/04/08 01:44:06;;;;;;;3.17;1.23;;;11.90;92.30;;;;;;5065008;28;20454;-80
2022/04/08 01:46:35;;;;;;;1.40;1.30;;;11.70;85.90;;;;;;5057039;28;20943;-82
2022/04/08 01:49:03;;;;;;;4.03;0.60;;;11.60;81.20;;;;;;5059762;28;20489;-80
2022/04/08 01:51:31;;;;;;;0.80;0.60;;;11.50;79.00;;;;;;5069235;28;20447;-80
2022/04/08 01:53:59;;;;;;;1.20;0.80;;;11.50;76.80;;;;;;5069909;28;20450;-80
2022/04/08 01:56:27;;;;;;;3.17;0.70;;;11.50;76.20;;;;;;5058697;28;20539;-82
2022/04/08 01:58:56;;;;;;;2.30;0.70;;;11.40;74.70;;;;;;5066230;28;20461;-84
2022/04/08 02:01:25;;;;;;;1.47;1.17;;;11.50;75.90;;;;;;5064801;28;20698;-82
2022/04/08 02:03:53;;;;;;;1.17;0.50;;;11.40;75.90;;;;;;5059836;28;20475;-82
2022/04/08 02:06:22;;;;;;;1.47;0.67;;;11.50;78.50;;;;;;5082827;28;20513;-82
2022/04/08 02:08:50;;;;;;;1.93;0.70;;;11.40;78.40;;;;;;5065192;28;20442;-82
2022/04/08 02:11:18;;;;;;;5.40;1.60;;;11.50;79.70;;;;;;5067383;28;20456;-82
2022/04/08 02:13:47;;;;;;;1.30;0.70;;;11.50;81.10;;;;;;5063450;28;20467;-80
2022/04/08 02:16:15;;;;;;;2.83;0.63;;;11.70;83.40;;;;;;5063557;28;20471;-81
2022/04/08 02:18:45;;;;;;;0.70;0.70;;;11.70;78.80;;;;;;5064542;28;20460;-80
2022/04/08 02:21:19;;;;;;;2.13;0.80;;;11.80;81.20;;;;;;5062718;28;20458;-80
2022/04/08 02:23:47;;;;;;;0.70;0.60;;;11.80;81.40;;;;;;5058463;28;20466;-80
2022/04/08 02:26:16;;;;;;;3.27;0.90;;;11.80;80.40;;;;;;5056788;28;20620;-81
2022/04/08 02:28:45;;;;;;;2.00;0.50;;;11.80;81.90;;;;;;5064359;28;20580;-81
2022/04/08 02:31:13;;;;;;;1.97;0.63;;;11.80;80.20;;;;;;5068550;28;20451;-81
2022/04/08 02:33:42;;;;;;;4.93;0.80;;;11.70;79.00;;;;;;5069075;28;20531;-81
2022/04/08 02:36:12;;;;;;;1.77;1.27;;;11.60;76.70;;;;;;5062434;28;20481;-80
2022/04/08 02:38:40;;;;;;;0.77;0.60;;;11.60;77.70;;;;;;5069179;28;20468;-81
2022/04/08 02:41:08;;;;;;;3.13;0.60;;;11.60;78.00;;;;;;5065086;28;20448;-80
2022/04/08 02:43:36;;;;;;;1.27;0.70;;;11.70;79.00;;;;;;5067122;28;20540;-81
2022/04/08 02:46:04;;;;;;;3.23;0.67;;;11.70;76.00;;;;;;5062703;28;20523;-81
2022/04/08 02:48:32;;;;;;;2.57;0.67;;;11.70;72.00;;;;;;5063991;28;20448;-81
2022/04/08 02:51:00;;;;;;;2.33;0.80;;;11.80;72.40;;;;;;5063845;28;20967;-81
2022/04/08 02:53:30;;;;;;;2.83;0.80;;;11.70;72.00;;;;;;5067861;28;20474;-80
2022/04/08 02:55:58;;;;;;;2.07;0.70;;;11.70;69.40;;;;;;5063272;28;20472;-80
2022/04/08 02:58:27;;;;;;;2.70;0.60;;;11.50;62.10;;;;;;5063957;28;20455;-80
2022/04/08 03:00:59;;;;;;;2.80;0.80;;;11.60;62.60;;;;;;5070437;28;20991;-82
2022/04/08 03:03:28;;;;;;;1.00;0.77;;;11.60;60.50;;;;;;5069939;28;20599;-80
2022/04/08 03:05:58;;;;;;;3.60;0.60;;;11.40;55.90;;;;;;5067298;28;20465;-80
2022/04/08 03:08:26;;;;;;;1.13;0.60;;;11.40;56.00;;;;;;5068326;28;20441;-80
2022/04/08 03:10:57;;;;;;;3.47;0.70;;;11.40;55.60;;;;;;5062812;28;20443;-80
2022/04/08 03:13:25;;;;;;;5.10;1.10;;;11.50;54.10;;;;;;5071941;28;20471;-80
2022/04/08 03:15:53;;;;;;;1.80;0.57;;;11.30;53.40;;;;;;5067680;28;20447;-80
2022/04/08 03:18:22;;;;;;;2.30;1.10;;;11.30;53.30;;;;;;5073500;28;20473;-80
2022/04/08 03:20:50;;;;;;;0.60;0.60;;;11.20;50.90;;;;;;5066114;28;20505;-80
2022/04/08 03:23:18;;;;;;;1.57;0.50;;;11.30;53.00;;;;;;5069838;28;20478;-82
2022/04/08 03:25:46;;;;;;;2.80;0.73;;;11.40;52.10;;;;;;5064182;28;20460;-81
2022/04/08 03:28:15;;;;;;;0.70;0.53;;;11.50;53.60;;;;;;5066060;28;20884;-80
2022/04/08 03:30:44;;;;;;;3.00;0.60;;;11.50;54.80;;;;;;5065852;28;20466;-81
2022/04/08 03:33:12;;;;;;;0.70;0.50;;;11.50;53.90;;;;;;5070176;28;20474;-82
2022/04/08 03:35:40;;;;;;;5.20;0.83;;;11.50;52.40;;;;;;5066599;28;20443;-81
2022/04/08 03:38:08;;;;;;;0.90;0.60;;;11.40;50.70;;;;;;5066745;28;20493;-80
2022/04/08 03:40:36;;;;;;;1.43;0.70;;;11.40;49.60;;;;;;5064605;28;20475;-82
2022/04/08 03:43:05;;;;;;;0.53;0.53;;;11.50;49.50;;;;;;5064080;28;20532;-80
2022/04/08 03:45:34;;;;;;;1.30;0.60;;;11.50;49.80;;;;;;5071688;28;20441;-80
2022/04/08 03:48:03;;;;;;;0.80;0.60;;;11.60;51.60;;;;;;5064326;28;20448;-81
2022/04/08 03:50:31;;;;;;;4.50;0.60;;;11.60;50.40;;;;;;5066295;28;20554;-81
2022/04/08 03:52:59;;;;;;;5.30;1.80;;;11.60;50.20;;;;;;5064674;28;20505;-83
2022/04/08 03:55:27;;;;;;;1.33;0.70;;;11.50;48.30;;;;;;5063572;28;20462;-81
2022/04/08 03:57:58;;;;;;;1.10;0.73;;;11.40;44.60;;;;;;5068111;28;20509;-80
2022/04/08 04:00:26;;;;;;;1.90;0.80;;;11.20;42.10;;;;;;5064282;28;20755;-79
2022/04/08 04:02:56;;;;;;;2.30;0.73;;;11.20;46.20;;;;;;5065456;28;20484;-80
2022/04/08 04:05:24;;;;;;;0.70;0.60;;;11.30;45.10;;;;;;5062056;28;20461;-80
2022/04/08 04:07:52;;;;;;;1.17;0.67;;;11.20;44.40;;;;;;5067083;28;20451;-80
2022/04/08 04:10:20;;;;;;;1.20;0.63;;;11.30;45.40;;;;;;5057942;28;20463;-80
2022/04/08 04:12:48;;;;;;;2.87;0.70;;;11.40;45.30;;;;;;5060550;28;21028;-83
2022/04/08 04:15:17;;;;;;;2.73;0.80;;;11.40;47.80;;;;;;5066169;28;20455;-80
2022/04/08 04:17:45;;;;;;;4.00;0.80;;;11.50;46.50;;;;;;5069462;28;20482;-81
2022/04/08 04:20:14;;;;;;;3.63;0.77;;;11.40;47.50;;;;;;5071059;28;20462;-82
2022/04/08 04:22:42;;;;;;;1.23;0.63;;;11.40;48.40;;;;;;5064154;28;20478;-81
2022/04/08 04:25:11;;;;;;;2.47;1.03;;;11.50;47.20;;;;;;5065267;28;20470;-82
2022/04/08 04:27:40;;;;;;;1.03;0.63;;;11.50;48.10;;;;;;5063615;28;20492;-82
2022/04/08 04:30:09;;;;;;;2.20;0.80;;;11.50;48.30;;;;;;5062895;28;20438;-83
2022/04/08 04:32:37;;;;;;;1.70;0.80;;;11.40;46.20;;;;;;5066355;28;20927;-81
2022/04/08 04:35:07;;;;;;;0.90;0.67;;;11.40;47.70;;;;;;5063310;28;20492;-80
2022/04/08 04:37:38;;;;;;;1.80;0.87;;;11.40;47.00;;;;;;5059833;28;20502;-81
2022/04/08 04:40:08;;;;;;;0.83;0.63;;;11.50;47.90;;;;;;5057428;28;20451;-79
2022/04/08 04:42:36;;;;;;;1.60;0.63;;;11.40;45.90;;;;;;5054649;28;20474;-80
2022/04/08 04:45:05;;;;;;;1.13;0.80;;;11.50;49.20;;;;;;5061428;28;20992;-81
2022/04/08 04:47:33;;;;;;;1.23;0.70;;;11.50;47.40;;;;;;5063721;28;20480;-77
2022/04/08 04:50:01;;;;;;;0.63;0.57;;;11.40;47.30;;;;;;5056018;28;20457;-80
2022/04/08 04:52:29;;;;;;;1.80;0.80;;;11.60;47.30;;;;;;5064358;28;20471;-81
2022/04/08 04:54:59;;;;;;;1.20;0.73;;;11.10;42.60;;;;;;5057430;28;20464;-79
2022/04/08 04:57:27;;;;;;;0.87;0.80;;;11.10;44.30;;;;;;5058973;28;20532;-79
2022/04/08 04:59:55;;;;;;;1.83;0.80;;;11.00;42.90;;;;;;5061462;28;20457;-79
2022/04/08 05:02:23;;;;;;;1.53;0.80;;;11.10;45.90;;;;;;5065594;28;20484;-81
2022/04/08 05:04:52;;;;;;;1.63;1.47;;;11.20;45.10;;;;;;5056028;28;20470;-80
2022/04/08 05:07:20;;;;;;;2.13;1.03;;;11.20;45.60;;;;;;5058789;28;20459;-81
2022/04/08 05:09:49;;;;;;;0.70;0.60;;;11.10;44.90;;;;;;5058842;28;20462;-80
2022/04/08 05:12:18;;;;;;;1.90;1.00;;;11.10;44.00;;;;;;5056259;28;20457;-81
2022/04/08 05:14:46;;;;;;;2.07;0.90;;;11.20;47.10;;;;;;5059574;28;20680;-81
2022/04/08 05:17:15;;;;;;;1.97;0.70;;;11.10;44.00;;;;;;5062126;28;20844;-79
2022/04/08 05:19:44;;;;;;;5.40;0.80;;;11.10;44.30;;;;;;5057368;28;21028;-80
2022/04/08 05:22:14;;;;;;;2.83;0.80;;;11.10;42.10;;;;;;5055990;28;21529;-80
2022/04/08 05:24:44;;;;;;;1.57;0.90;;;11.00;42.60;;;;;;5049377;28;20458;-80
2022/04/08 05:27:12;;;;;;;1.10;0.67;;;11.00;43.40;;;;;;5054582;28;20490;-80
2022/04/08 05:29:41;;;;;;;0.87;0.60;;;10.90;46.20;;;;;;5054579;28;20461;-79
2022/04/08 05:32:10;;;;;;;0.57;0.50;;;10.90;43.60;;;;;;5055218;28;21227;-79
2022/04/08 05:34:38;;;;;;;1.63;0.70;;;10.80;45.30;;;;;;5057726;28;20877;-79
2022/04/08 05:37:07;;;;;;;1.00;0.70;;;10.90;48.50;;;;;;5061046;28;20461;-80
2022/04/08 05:39:35;;;;;;;2.73;1.00;;;10.90;47.60;;;;;;5056978;28;20482;-79
2022/04/08 05:42:05;;;;;;;2.77;0.70;;;11.00;49.40;;;;;;5054212;28;20900;-78
2022/04/08 05:44:33;;;;;;;6.40;0.83;;;10.90;48.60;;;;;;5056973;28;20465;-79
2022/04/08 05:47:03;;;;;;;3.03;0.80;;;11.00;52.50;;;;;;5059939;28;20734;-79
2022/04/08 05:49:31;;;;;;;1.17;0.60;;;11.10;52.90;;;;;;5060365;28;20452;-79
2022/04/08 05:51:59;;;;;;;2.90;0.83;;;11.10;55.50;;;;;;5061407;28;20475;-79
2022/04/08 05:54:27;;;;;;;3.17;0.80;;;11.30;55.60;;;;;;5056138;28;20552;-79
2022/04/08 05:57:01;;;;;;;2.43;0.60;;;11.10;58.60;;;;;;5055292;28;20505;-79
2022/04/08 05:59:29;;;;;;;2.93;0.90;;;11.00;58.30;;;;;;5059388;28;20478;-79
2022/04/08 06:01:57;;;;;;;0.70;0.63;;;10.90;63.10;;;;;;5054861;28;20484;-80
2022/04/08 06:04:27;;;;;;;0.60;0.60;;;10.70;66.50;;;;;;5054660;28;20503;-78
2022/04/08 06:06:55;;;;;;;1.53;0.53;;;10.50;84.30;;;;;;5056317;28;20453;-81
2022/04/08 06:09:23;;;;;;;3.03;1.00;;;10.60;80.20;;;;;;5056608;28;20473;-80
2022/04/08 06:11:51;;;;;;;1.27;0.70;;;10.40;86.30;;;;;;5060885;28;20557;-81
2022/04/08 06:14:20;;;;;;;1.50;0.70;;;10.40;94.50;;;;;;5061959;28;20457;-79
2022/04/08 06:16:48;;;;;;;0.70;0.60;;;10.60;96.80;;;;;;5054854;28;20950;-79
2022/04/08 06:19:16;;;;;;;1.70;0.67;;;10.50;97.00;;;;;;5054317;28;20481;-79
2022/04/08 06:21:46;;;;;;;1.37;0.80;;;10.60;98.60;;;;;;5058180;28;20480;-79
2022/04/08 06:24:15;;;;;;;2.63;0.60;;;10.50;99.00;;;;;;5053038;28;20504;-80
2022/04/08 06:26:43;;;;;;;2.63;0.80;;;10.60;99.90;;;;;;5057238;28;20470;-80
2022/04/08 06:29:11;;;;;;;0.77;0.67;;;10.50;99.90;;;;;;5060475;28;20449;-78
2022/04/08 06:31:45;;;;;;;1.23;1.07;;;10.40;99.90;;;;;;5053389;28;20586;-79
2022/04/08 06:34:15;;;;;;;2.53;1.10;;;10.20;99.90;;;;;;5061010;28;20821;-79
2022/04/08 06:36:44;;;;;;;1.27;0.70;;;10.00;99.90;;;;;;5057963;28;20462;-80
2022/04/08 06:39:13;;;;;;;2.33;0.70;;;9.90;99.90;;;;;;5055332;28;20801;-80
2022/04/08 06:41:42;;;;;;;2.77;0.50;;;9.80;99.90;;;;;;5054000;28;20611;-80
2022/04/08 06:44:10;;;;;;;1.23;0.50;;;9.90;99.90;;;;;;5055651;28;20457;-80
2022/04/08 06:46:38;;;;;;;1.07;0.60;;;9.80;99.90;;;;;;5056522;28;20458;-80
2022/04/08 06:49:06;;;;;;;1.20;0.70;;;9.90;99.90;;;;;;5061947;28;20937;-79
2022/04/08 06:51:35;;;;;;;3.73;0.80;;;9.80;99.90;;;;;;5058117;28;20457;-80
2022/04/08 06:54:03;;;;;;;4.30;1.17;;;10.00;99.90;;;;;;5057888;28;20522;-81
2022/04/08 06:56:33;;;;;;;1.10;0.70;;;10.00;99.90;;;;;;5062829;28;20571;-80
2022/04/08 06:59:06;;;;;;;0.87;0.53;;;9.80;99.90;;;;;;5061865;28;20540;-80
2022/04/08 07:01:35;;;;;;;1.33;0.77;;;9.90;99.90;;;;;;5064399;28;20471;-80
2022/04/08 07:04:03;;;;;;;0.60;0.60;;;10.10;99.90;;;;;;5064237;28;20490;-78
2022/04/08 07:06:31;;;;;;;1.50;0.70;;;10.20;99.90;;;;;;5063381;28;20452;-80
2022/04/08 07:08:59;;;;;;;0.90;0.90;;;10.20;99.90;;;;;;5066122;28;20932;-78
2022/04/08 07:11:35;;;;;;;2.60;0.80;;;10.10;99.90;;;;;;5059761;28;20459;-79
2022/04/08 07:14:05;;;;;;;0.70;0.60;;;10.30;99.90;;;;;;5062361;28;20471;-82
2022/04/08 07:16:33;;;;;;;0.80;0.70;;;10.20;99.90;;;;;;5061099;28;20454;-79
2022/04/08 07:19:01;;;;;;;0.80;0.63;;;10.00;99.90;;;;;;5065177;28;20484;-80
2022/04/08 07:21:30;;;;;;;2.10;0.60;;;9.90;99.90;;;;;;5061703;28;20462;-79
2022/04/08 07:23:58;;;;;;;2.33;0.70;;;9.90;99.90;;;;;;5063451;28;20468;-80
2022/04/08 07:26:26;;;;;;;2.73;0.60;;;9.80;99.90;;;;;;5055445;28;20465;-79
2022/04/08 07:28:56;;;;;;;1.70;0.60;;;9.80;99.90;;;;;;5058279;28;20807;-79
2022/04/08 07:31:24;;;;;;;0.53;0.50;;;9.90;99.90;;;;;;5057886;28;20457;-79
2022/04/08 07:33:52;;;;;;;1.10;0.60;;;10.00;99.90;;;;;;5057509;28;22776;-79
2022/04/08 07:36:21;;;;;;;0.73;0.60;;;9.90;99.90;;;;;;5059035;28;20463;-79
2022/04/08 07:38:49;;;;;;;0.97;0.97;;;10.00;99.90;;;;;;5055246;28;20534;-78
2022/04/08 07:41:17;;;;;;;1.03;0.70;;;10.00;99.90;;;;;;5058575;28;20452;-80
2022/04/08 07:43:45;;;;;;;0.63;0.50;;;9.60;99.90;;;;;;5063060;28;20483;-78
2022/04/08 07:46:15;;;;;;;2.10;0.70;;;9.70;99.90;;;;;;5059930;28;20455;-79
2022/04/08 07:48:43;;;;;;;0.53;0.50;;;9.80;99.90;;;;;;5055751;28;20454;-79
2022/04/08 07:51:11;;;;;;;1.00;0.50;;;9.90;99.90;;;;;;5063884;28;20464;-80
2022/04/08 07:53:39;;;;;;;1.60;0.80;;;9.80;99.90;;;;;;5057098;28;21285;-79
2022/04/08 07:56:08;;;;;;;0.60;0.50;;;9.70;99.90;;;;;;5057478;28;20468;-79
2022/04/08 07:58:36;;;;;;;0.77;0.50;;;9.60;99.90;;;;;;5058879;28;20454;-79
2022/04/08 08:01:04;;;;;;;2.77;0.70;;;9.50;99.90;;;;;;5058771;28;20452;-80
2022/04/08 08:03:34;;;;;;;3.03;0.53;;;9.60;99.90;;;;;;5056349;28;20559;-79
2022/04/08 08:06:04;;;;;;;0.60;0.60;;;9.90;99.90;;;;;;5054657;28;20988;-80
2022/04/08 08:08:32;;;;;;;0.50;0.50;;;9.80;99.90;;;;;;5057881;28;20440;-79
2022/04/08 08:11:00;;;;;;;0.60;0.60;;;9.50;99.90;;;;;;5058994;28;20457;-80
2022/04/08 08:13:28;;;;;;;0.70;0.60;;;9.60;99.90;;;;;;5061051;28;20463;-79
2022/04/08 08:15:57;;;;;;;2.37;1.10;;;9.60;99.90;;;;;;5057998;28;20478;-79
2022/04/08 08:18:25;;;;;;;0.70;0.60;;;9.70;99.90;;;;;;5055502;28;20541;-79
2022/04/08 08:20:54;;;;;;;0.97;0.50;;;9.70;99.90;;;;;;5058849;28;20470;-80
2022/04/08 08:23:23;;;;;;;0.80;0.60;;;9.60;99.90;;;;;;5056564;28;20480;-79
2022/04/08 08:25:51;;;;;;;1.20;0.70;;;9.60;99.90;;;;;;5058281;28;20466;-80
2022/04/08 08:28:30;;;;;;;1.07;0.50;;;9.80;1.00;;;;;;5056265;28;20471;-80
2022/04/08 08:30:58;;;;;;;0.60;0.60;;;10.00;99.90;;;;;;5059317;28;20456;-76
2022/04/08 08:33:27;;;;;;;0.70;0.60;;;9.90;99.90;;;;;;5054321;28;20480;-80
2022/04/08 08:35:56;;;;;;;1.23;0.60;;;9.80;99.90;;;;;;5053110;28;20463;-78
2022/04/08 08:38:25;;;;;;;1.83;0.50;;;9.50;99.90;;;;;;5061020;28;20452;-78
2022/04/08 08:40:54;;;;;;;1.30;0.53;;;9.40;1.00;;;;;;5059515;28;20488;-79
2022/04/08 08:43:22;;;;;;;0.87;0.77;;;9.50;1.00;;;;;;5055223;28;21008;-79
2022/04/08 08:45:51;;;;;;;0.60;0.60;;;9.60;99.90;;;;;;5060006;28;20453;-79
2022/04/08 08:48:24;;;;;;;1.33;0.50;;;9.60;99.90;;;;;;5064418;28;20466;-80
2022/04/08 08:50:55;;;;;;;2.20;0.50;;;9.20;1.00;;;;;;5057754;28;20535;-80
2022/04/08 08:53:25;;;;;;;0.60;0.60;;;9.20;99.90;;;;;;5061426;28;20503;-80
2022/04/08 08:55:53;;;;;;;0.90;0.70;;;8.90;1.00;;;;;;5062511;28;20548;-80
2022/04/08 08:58:23;;;;;;;0.53;0.50;;;9.00;1.00;;;;;;5060254;28;20521;-79
2022/04/08 09:00:51;;;;;;;0.50;0.50;;;9.10;1.00;;;;;;5059822;28;21236;-81
2022/04/08 09:03:19;;;;;;;1.27;0.60;;;9.30;1.00;;;;;;5058083;28;20493;-79
2022/04/08 09:05:52;;;;;;;0.50;0.40;;;9.30;1.00;;;;;;5056064;28;20455;-78
2022/04/08 09:08:20;;;;;;;0.40;0.40;;;9.30;99.90;;;;;;5056843;28;20455;-79
2022/04/08 09:10:51;;;;;;;0.60;0.60;;;9.50;1.00;;;;;;5060183;28;20453;-78
2022/04/08 09:13:20;;;;;;;0.60;0.60;;;9.60;1.00;;;;;;5061447;28;21026;-79
2022/04/08 09:15:56;;;;;;;0.60;0.60;;;9.40;1.00;;;;;;5056737;28;20457;-80
2022/04/08 09:18:29;;;;;;;0.60;0.50;;;9.60;1.00;;;;;;5053207;28;20463;-78
2022/04/08 09:21:04;;;;;;;0.40;0.40;;;9.80;1.00;;;;;;5053017;28;20488;-78
2022/04/08 09:23:34;;;;;;;0.50;0.50;;;9.90;99.90;;;;;;5055489;28;20476;-79
2022/04/08 09:26:07;;;;;;;0.93;0.50;;;9.90;99.90;;;;;;5058094;28;20466;-79
2022/04/08 09:28:36;;;;;;;0.53;0.50;;;10.00;99.90;;;;;;5059862;28;20972;-81
2022/04/08 09:31:05;;;;;;;0.53;0.50;;;10.10;99.90;;;;;;5053938;28;20456;-79
2022/04/08 09:33:34;;;;;;;0.40;0.40;;;10.10;99.90;;;;;;5055201;28;20482;-79
2022/04/08 09:36:02;;;;;;;0.50;0.50;;;10.20;99.90;;;;;;5053212;28;20459;-79
2022/04/08 09:38:31;;;;;;;0.63;0.50;;;10.40;99.90;;;;;;5057783;28;20473;-78
2022/04/08 09:41:01;;;;;;;0.50;0.50;;;10.40;99.90;;;;;;5060725;28;20521;-80
2022/04/08 09:43:35;;;;;;;0.60;0.50;;;10.40;99.90;;;;;;5067274;28;20478;-78
2022/04/08 09:46:14;;;;;;;0.77;0.77;;;10.40;99.90;;;;;;5056191;28;20470;-80
2022/04/08 09:48:43;;;;;;;0.50;0.50;;;10.40;99.90;;;;;;5060594;28;20452;-79
2022/04/08 09:51:17;;;;;;;1.23;0.53;;;10.50;99.90;;;;;;5059721;28;20450;-79
2022/04/08 09:53:47;;;;;;;0.40;0.40;;;10.50;99.90;;;;;;5058873;28;20535;-79
2022/04/08 09:56:19;;;;;;;0.40;0.40;;;10.50;99.90;;;;;;5055824;28;20465;-79
2022/04/08 09:58:55;;;;;;;0.40;0.40;;;10.60;99.90;;;;;;5053939;28;20461;-79
2022/04/08 10:01:25;;;;;;;0.40;0.40;;;10.60;99.90;;;;;;5057277;28;22322;-78
2022/04/08 10:03:54;;;;;;;0.53;0.50;;;10.60;99.90;;;;;;5053709;28;21938;-80
2022/04/08 10:06:23;;;;;;;1.00;0.50;;;10.60;99.90;;;;;;5053814;28;20459;-79
2022/04/08 10:08:52;;;;;;;0.60;0.60;;;10.90;99.90;;;;;;5059432;28;20472;-79
2022/04/08 10:11:25;;;;;;;1.00;0.60;;;10.80;99.90;;;;;;5064166;28;20453;-78
2022/04/08 10:14:09;;;;;;;1.03;0.50;;;10.80;99.90;;;;;;5056387;28;20817;-79
2022/04/08 10:16:40;;;;;;;0.40;0.40;;;10.70;1.00;;;;;;5052374;28;20488;-80
2022/04/08 10:19:11;;;;;;;0.50;0.50;;;10.80;1.00;;;;;;5052914;28;20456;-78
2022/04/08 10:21:40;;;;;;;2.33;0.73;;;10.80;99.90;;;;;;5053398;28;21001;-79
2022/04/08 10:24:13;;;;;;;0.77;0.50;;;10.70;99.90;;;;;;5059214;28;20462;-79
2022/04/08 10:27:04;;;;;;;0.70;0.50;;;10.70;1.00;;;;;;5058914;28;20547;-79
2022/04/08 10:29:34;;;;;;;0.50;0.50;;;10.70;1.00;;;;;;5058950;28;20882;-79
2022/04/08 10:32:05;;;;;;;0.50;0.50;;;10.60;1.00;;;;;;5053924;28;20473;-79
2022/04/08 10:34:35;;;;;;;0.60;0.60;;;10.70;1.00;;;;;;5057849;28;20508;-78
2022/04/08 10:37:15;;;;;;;0.80;0.80;;;10.70;1.00;;;;;;5064102;28;21201;-79
2022/04/08 10:39:54;;;;;;;0.70;0.67;;;10.80;1.00;;;;;;5063538;28;20485;-80
2022/04/08 10:42:23;;;;;;;0.80;0.80;;;10.70;1.00;;;;;;5063886;28;20856;-79
2022/04/08 10:44:53;;;;;;;0.70;0.70;;;10.60;1.00;;;;;;5059936;28;20460;-78
2022/04/08 10:47:23;;;;;;;1.13;0.70;;;10.60;1.00;;;;;;5063407;28;20464;-79
2022/04/08 10:49:53;;;;;;;0.50;0.50;;;10.70;1.00;;;;;;5060514;28;20459;-79
2022/04/08 10:52:24;;;;;;;2.10;1.53;;;10.80;63.70;;;;;;5067681;28;20475;-79
2022/04/08 10:55:05;;;;;;;0.70;0.57;;;10.80;99.90;;;;;;5058582;28;20456;-79
2022/04/08 10:57:36;;;;;;;0.60;0.50;;;10.80;31.30;;;;;;5064858;28;20453;-80
2022/04/08 11:00:10;;;;;;;0.70;0.70;;;10.80;1.00;;;;;;5058088;28;20503;-80
2022/04/08 11:02:39;;;;;;;1.43;0.60;;;10.80;1.00;;;;;;5061145;28;20485;-79
2022/04/08 11:05:10;;;;;;;1.27;0.60;;;10.70;1.00;;;;;;5061001;28;20457;-78
2022/04/08 11:07:41;;;;;;;0.50;0.50;;;10.70;1.00;;;;;;5056016;28;20451;-79
2022/04/08 11:10:11;;;;;;;0.97;0.60;;;10.80;1.00;;;;;;5056626;28;20446;-79
2022/04/08 11:12:44;;;;;;;0.50;0.50;;;10.80;1.00;;;;;;5060911;28;20474;-79
2022/04/08 11:15:18;;;;;;;0.73;0.53;;;10.70;1.00;;;;;;5057203;28;20548;-80
2022/04/08 11:17:48;;;;;;;0.87;0.80;;;10.70;31.30;;;;;;5058990;28;20458;-79
2022/04/08 11:20:18;;;;;;;1.03;0.93;;;10.80;33.40;;;;;;5061495;28;20466;-79
2022/04/08 11:22:48;;;;;;;0.70;0.70;;;10.90;1.00;;;;;;5054326;28;20482;-79
2022/04/08 11:25:22;;;;;;;0.67;0.67;;;10.90;36.30;;;;;;5063904;28;20478;-79
2022/04/08 11:28:00;;;;;;;1.80;0.93;;;11.00;1.00;;;;;;5063421;28;20459;-79
2022/04/08 11:30:31;;;;;;;0.70;0.70;;;11.00;79.40;;;;;;5060084;28;20454;-78
2022/04/08 11:33:01;;;;;;;0.60;0.60;;;10.90;99.90;;;;;;5065683;28;20537;-78
2022/04/08 11:35:32;;;;;;;0.90;0.80;;;11.00;99.90;;;;;;5057806;28;20457;-78
2022/04/08 11:38:00;;;;;;;0.50;0.50;;;10.90;99.90;;;;;;5060519;28;21014;-80
2022/04/08 11:40:30;;;;;;;0.50;0.50;;;10.90;31.20;;;;;;5057272;28;20510;-80
2022/04/08 11:42:59;;;;;;;0.60;0.50;;;10.90;99.90;;;;;;5062930;28;20547;-77
2022/04/08 11:45:27;;;;;;;0.53;0.53;;;10.80;99.90;;;;;;5062597;28;20458;-78
2022/04/08 11:47:57;;;;;;;1.37;0.50;;;10.90;24.90;;;;;;5058249;28;21075;-79
2022/04/08 11:50:27;;;;;;;0.60;0.60;;;10.80;99.90;;;;;;5061673;28;20450;-79
2022/04/08 11:52:58;;;;;;;0.60;0.60;;;10.90;99.90;;;;;;5056972;28;20810;-78
2022/04/08 11:55:31;;;;;;;0.60;0.50;;;11.00;99.90;;;;;;5055657;28;20957;-79
2022/04/08 11:57:59;;;;;;;0.70;0.70;;;10.90;99.90;;;;;;5058373;28;20458;-78
2022/04/08 12:00:30;;;;;;;0.90;0.70;;;11.00;99.90;;;;;;5063398;28;20485;-79
2022/04/08 12:03:00;;;;;;;1.53;0.50;;;10.90;11.90;;;;;;5059770;28;20506;-78
2022/04/08 12:05:30;;;;;;;1.53;0.53;;;10.90;99.90;;;;;;5060442;28;20451;-79
2022/04/08 12:08:19;;;;;;;0.60;0.60;;;10.90;85.90;;;;;;5057780;28;20451;-80
2022/04/08 12:10:51;;;;;;;0.50;0.50;;;10.90;1.00;;;;;;5060247;28;20548;-79
2022/04/08 12:13:21;;;;;;;0.60;0.60;;;10.90;77.20;;;;;;5059243;28;20471;-79
2022/04/08 12:15:54;;;;;;;0.60;0.60;;;10.90;99.90;;;;;;5054890;28;20456;-80
2022/04/08 12:18:32;;;;;;;0.67;0.67;;;10.90;99.90;;;;;;5059979;28;20519;-79
2022/04/08 12:21:05;;;;;;;0.80;0.80;;;11.00;99.90;;;;;;5058073;28;20504;-79
2022/04/08 12:23:34;;;;;;;0.70;0.70;;;11.00;99.90;;;;;;5058120;28;20481;-78
2022/04/08 12:26:05;;;;;;;1.90;0.73;;;11.00;99.90;;;;;;5058655;28;20478;-78
2022/04/08 12:28:35;;;;;;;0.80;0.80;;;11.00;99.90;;;;;;5055647;28;20457;-79
2022/04/08 12:31:12;;;;;;;1.20;1.10;;;11.00;32.20;;;;;;5061091;28;20474;-79
2022/04/08 12:33:43;;;;;;;0.77;0.77;;;10.90;99.90;;;;;;5062733;28;20946;-79
2022/04/08 12:36:13;;;;;;;0.77;0.60;;;10.80;99.90;;;;;;5058572;28;20532;-79
2022/04/08 12:38:42;;;;;;;2.00;0.60;;;10.90;99.90;;;;;;5050858;28;20549;-79
2022/04/08 12:41:11;;;;;;;0.70;0.70;;;10.90;99.90;;;;;;5051279;28;20447;-78
2022/04/08 12:43:40;;;;;;;0.63;0.63;;;10.90;99.90;;;;;;5056519;28;20513;-79
2022/04/08 12:46:09;;;;;;;1.00;0.80;;;11.00;99.90;;;;;;5051463;28;20563;-78
2022/04/08 12:48:37;;;;;;;0.93;0.60;;;10.90;99.90;;;;;;5052059;28;21019;-79
2022/04/08 12:51:07;;;;;;;0.90;0.80;;;11.00;99.90;;;;;;5052250;28;20671;-81
2022/04/08 12:53:36;;;;;;;1.10;0.80;;;10.80;32.60;;;;;;5051786;28;20823;-79
2022/04/08 12:56:05;;;;;;;1.47;0.90;;;10.80;63.70;;;;;;5063659;28;20451;-79
2022/04/08 12:58:34;;;;;;;1.03;0.90;;;10.80;99.30;;;;;;5060034;28;20482;-81
2022/04/08 13:01:02;;;;;;;0.70;0.70;;;10.70;99.90;;;;;;5061871;28;21036;-80
2022/04/08 13:03:31;;;;;;;0.80;0.80;;;10.70;99.90;;;;;;5059098;28;20488;-79